createdAt,value
2023-05-19T00:00:28.169Z,0
2023-05-19T00:01:44.000Z,0
2023-05-19T00:03:00.000Z,0
2023-05-19T00:04:17.188Z,0
2023-05-19T00:05:33.000Z,0
2023-05-19T00:06:49.774Z,0
2023-05-19T00:08:06.000Z,0
2023-05-19T00:09:22.364Z,0
2023-05-19T00:10:38.656Z,0
2023-05-19T00:11:54.946Z,0
2023-05-19T00:13:11.000Z,0
2023-05-19T00:14:27.000Z,0
2023-05-19T00:15:43.812Z,0
2023-05-19T00:17:00.000Z,0
2023-05-19T00:18:16.000Z,0
2023-05-19T00:19:32.705Z,0
2023-05-19T00:20:48.013Z,0
2023-05-19T00:22:04.299Z,0
2023-05-19T00:23:20.000Z,0
2023-05-19T00:24:36.000Z,0
2023-05-19T00:25:53.000Z,0
2023-05-19T00:27:09.000Z,0
2023-05-19T00:28:25.000Z,0
2023-05-19T00:29:42.077Z,0
2023-05-19T00:30:58.000Z,0
2023-05-19T00:32:14.659Z,0
2023-05-19T00:33:30.000Z,0
2023-05-19T00:34:47.235Z,0
2023-05-19T00:36:03.000Z,0
2023-05-19T00:37:18.000Z,0
2023-05-19T00:38:35.000Z,0
2023-05-19T00:39:51.438Z,0
2023-05-19T00:41:07.000Z,0
2023-05-19T00:42:24.021Z,0
2023-05-19T00:43:40.309Z,0
2023-05-19T00:44:56.609Z,0
2023-05-19T00:46:12.000Z,0
2023-05-19T00:47:29.000Z,0
2023-05-19T00:48:45.000Z,0
2023-05-19T00:50:01.000Z,0
2023-05-19T00:51:18.000Z,0
2023-05-19T00:52:34.369Z,0
2023-05-19T00:53:49.678Z,0
2023-05-19T00:55:05.970Z,0
2023-05-19T00:56:22.255Z,0
2023-05-19T00:57:38.000Z,0
2023-05-19T00:58:54.000Z,0
2023-05-19T01:00:11.134Z,0
2023-05-19T01:01:27.000Z,0
2023-05-19T01:02:43.726Z,0
2023-05-19T01:04:00.000Z,0
2023-05-19T01:05:16.305Z,0
2023-05-19T01:06:32.599Z,0
2023-05-19T01:07:48.906Z,0
2023-05-19T01:09:05.000Z,0
2023-05-19T01:10:20.512Z,0
2023-05-19T01:11:36.000Z,0
2023-05-19T01:12:53.100Z,0
2023-05-19T01:14:09.000Z,0
2023-05-19T01:15:25.673Z,0
2023-05-19T01:16:41.965Z,0
2023-05-19T01:17:58.270Z,0
2023-05-19T01:19:14.000Z,0
2023-05-19T01:20:30.850Z,0
2023-05-19T01:21:47.000Z,0
2023-05-19T01:23:03.446Z,0
2023-05-19T01:24:19.000Z,0
2023-05-19T01:25:36.000Z,0
2023-05-19T01:26:51.332Z,0
2023-05-19T01:28:07.621Z,0
2023-05-19T01:29:23.000Z,0
2023-05-19T01:30:40.218Z,0
2023-05-19T01:31:56.000Z,0
2023-05-19T01:33:12.811Z,0
2023-05-19T01:34:29.000Z,0
2023-05-19T01:35:45.000Z,0
2023-05-19T01:37:01.690Z,0
2023-05-19T01:38:17.972Z,0
2023-05-19T01:39:34.272Z,0
2023-05-19T01:40:50.000Z,0
2023-05-19T01:42:06.000Z,0
2023-05-19T01:43:22.159Z,0
2023-05-19T01:44:38.000Z,0
2023-05-19T01:45:54.745Z,0
2023-05-19T01:47:11.000Z,0
2023-05-19T01:48:27.340Z,0
2023-05-19T01:49:43.634Z,0
2023-05-19T01:50:59.937Z,0
2023-05-19T01:52:16.000Z,0
2023-05-19T01:53:32.515Z,0
2023-05-19T01:54:48.000Z,0
2023-05-19T01:56:05.000Z,0
2023-05-19T01:57:21.000Z,0
2023-05-19T01:58:37.686Z,0
2023-05-19T01:59:53.007Z,0
2023-05-19T02:01:09.289Z,0
2023-05-19T02:02:25.596Z,0
2023-05-19T02:03:41.000Z,0
2023-05-19T02:04:58.000Z,0
2023-05-19T02:06:14.451Z,0
2023-05-19T02:07:30.000Z,0
2023-05-19T02:08:47.061Z,0
2023-05-19T02:10:03.000Z,0
2023-05-19T02:11:19.646Z,0
2023-05-19T02:12:35.931Z,0
2023-05-19T02:13:52.000Z,0
2023-05-19T02:15:08.000Z,0
2023-05-19T02:16:23.000Z,0
2023-05-19T02:17:40.117Z,0
2023-05-19T02:18:56.000Z,0
2023-05-19T02:20:12.000Z,0
2023-05-19T02:21:29.000Z,0
2023-05-19T02:22:45.000Z,0
2023-05-19T02:24:01.584Z,0
2023-05-19T02:25:17.000Z,0
2023-05-19T02:26:34.182Z,0
2023-05-19T02:27:50.000Z,0
2023-05-19T02:29:06.000Z,0
2023-05-19T02:30:23.000Z,0
2023-05-19T02:31:39.351Z,0
2023-05-19T02:32:54.000Z,0
2023-05-19T02:34:10.962Z,0
2023-05-19T02:35:27.271Z,0
2023-05-19T02:36:43.000Z,0
2023-05-19T02:37:59.000Z,1
2023-05-19T02:39:16.074Z,0
2023-05-19T02:40:32.000Z,1
2023-05-19T02:41:48.000Z,1
2023-05-19T02:43:04.000Z,1
2023-05-19T02:44:21.048Z,1
2023-05-19T02:45:37.264Z,1
2023-05-19T02:46:53.524Z,2
2023-05-19T02:48:09.000Z,2
2023-05-19T02:49:25.000Z,2
2023-05-19T02:50:41.000Z,3
2023-05-19T02:51:57.000Z,2
2023-05-19T02:53:13.000Z,2
2023-05-19T02:54:29.991Z,3
2023-05-19T02:55:46.230Z,4
2023-05-19T02:57:02.467Z,1
2023-05-19T02:58:18.701Z,3
2023-05-19T02:59:34.000Z,4
2023-05-19T03:00:51.000Z,4
2023-05-19T03:02:07.000Z,7
2023-05-19T03:03:23.000Z,10
2023-05-19T03:04:39.000Z,10
2023-05-19T03:05:55.000Z,11
2023-05-19T03:07:11.000Z,15
2023-05-19T03:08:27.000Z,16
2023-05-19T03:09:43.882Z,18
2023-05-19T03:11:00.000Z,20
2023-05-19T03:12:16.000Z,20
2023-05-19T03:13:32.000Z,23
2023-05-19T03:14:48.000Z,26
2023-05-19T03:16:05.000Z,29
2023-05-19T03:17:21.000Z,32
2023-05-19T03:18:37.000Z,37
2023-05-19T03:19:53.791Z,38
2023-05-19T03:21:10.000Z,44
2023-05-19T03:22:25.295Z,47
2023-05-19T03:23:41.000Z,50
2023-05-19T03:24:57.000Z,54
2023-05-19T03:26:14.000Z,60
2023-05-19T03:27:30.000Z,64
2023-05-19T03:28:46.000Z,65
2023-05-19T03:30:02.725Z,69
2023-05-19T03:31:18.959Z,78
2023-05-19T03:32:35.000Z,85
2023-05-19T03:33:51.000Z,91
2023-05-19T03:35:07.000Z,96
2023-05-19T03:36:23.000Z,102
2023-05-19T03:37:40.000Z,107
2023-05-19T03:38:55.000Z,110
2023-05-19T03:40:11.000Z,112
2023-05-19T03:41:27.000Z,117
2023-05-19T03:42:44.134Z,119
2023-05-19T03:44:00.000Z,129
2023-05-19T03:45:16.000Z,126
2023-05-19T03:46:32.000Z,127
2023-05-19T03:47:49.000Z,136
2023-05-19T03:49:05.000Z,138
2023-05-19T03:50:21.000Z,145
2023-05-19T03:51:37.000Z,156
2023-05-19T03:52:54.052Z,167
2023-05-19T03:54:10.000Z,179
2023-05-19T03:55:25.561Z,192
2023-05-19T03:56:41.000Z,201
2023-05-19T03:57:58.000Z,206
2023-05-19T03:59:14.000Z,212
2023-05-19T04:00:30.000Z,222
2023-05-19T04:01:46.000Z,230
2023-05-19T04:03:02.987Z,237
2023-05-19T04:04:19.235Z,234
2023-05-19T04:05:35.459Z,230
2023-05-19T04:06:51.000Z,234
2023-05-19T04:08:07.000Z,239
2023-05-19T04:09:24.000Z,255
2023-05-19T04:10:40.000Z,274
2023-05-19T04:11:55.000Z,288
2023-05-19T04:13:11.000Z,305
2023-05-19T04:14:28.000Z,321
2023-05-19T04:15:44.402Z,346
2023-05-19T04:17:00.626Z,364
2023-05-19T04:18:16.881Z,386
2023-05-19T04:19:32.139Z,408
2023-05-19T04:20:48.000Z,419
2023-05-19T04:22:04.000Z,442
2023-05-19T04:23:20.850Z,456
2023-05-19T04:24:37.000Z,475
2023-05-19T04:25:53.341Z,499
2023-05-19T04:27:09.000Z,533
2023-05-19T04:28:25.808Z,559
2023-05-19T04:29:42.000Z,593
2023-05-19T04:30:58.000Z,622
2023-05-19T04:32:14.000Z,658
2023-05-19T04:33:30.000Z,701
2023-05-19T04:34:47.000Z,741
2023-05-19T04:36:02.000Z,784
2023-05-19T04:37:18.000Z,828
2023-05-19T04:38:34.000Z,877
2023-05-19T04:39:51.000Z,928
2023-05-19T04:41:07.226Z,977
2023-05-19T04:42:23.000Z,1025
2023-05-19T04:43:39.000Z,1089
2023-05-19T04:44:55.936Z,1126
2023-05-19T04:46:12.177Z,1158
2023-05-19T04:47:28.000Z,1199
2023-05-19T04:48:44.658Z,1234
2023-05-19T04:50:00.899Z,1259
2023-05-19T04:51:17.152Z,1285
2023-05-19T04:52:32.376Z,1310
2023-05-19T04:53:48.638Z,1330
2023-05-19T04:55:04.000Z,1350
2023-05-19T04:56:21.124Z,1369
2023-05-19T04:57:37.000Z,1389
2023-05-19T04:58:53.604Z,1426
2023-05-19T05:00:09.844Z,1458
2023-05-19T05:01:26.082Z,1489
2023-05-19T05:02:42.308Z,1533
2023-05-19T05:03:58.556Z,1568
2023-05-19T05:05:14.000Z,1613
2023-05-19T05:06:31.023Z,1629
2023-05-19T05:07:47.000Z,1682
2023-05-19T05:09:02.525Z,1782
2023-05-19T05:10:18.000Z,1789
2023-05-19T05:11:35.013Z,1830
2023-05-19T05:12:51.000Z,1845
2023-05-19T05:14:07.493Z,1879
2023-05-19T05:15:23.000Z,1888
2023-05-19T05:16:39.961Z,1946
2023-05-19T05:17:56.000Z,1962
2023-05-19T05:19:12.434Z,1983
2023-05-19T05:20:28.000Z,2012
2023-05-19T05:21:44.921Z,2048
2023-05-19T05:23:01.166Z,2062
2023-05-19T05:24:17.410Z,2055
2023-05-19T05:25:32.656Z,2065
2023-05-19T05:26:48.897Z,2076
2023-05-19T05:28:05.000Z,2108
2023-05-19T05:29:21.000Z,2136
2023-05-19T05:30:37.000Z,2155
2023-05-19T05:31:53.847Z,2204
2023-05-19T05:33:10.000Z,2248
2023-05-19T05:34:26.334Z,2315
2023-05-19T05:35:42.584Z,2376
2023-05-19T05:36:58.000Z,2420
2023-05-19T05:38:15.000Z,2480
2023-05-19T05:39:31.000Z,2527
2023-05-19T05:40:47.000Z,2556
2023-05-19T05:42:02.793Z,2554
2023-05-19T05:43:19.000Z,2581
2023-05-19T05:44:35.270Z,2588
2023-05-19T05:45:51.497Z,2619
2023-05-19T05:47:07.750Z,2604
2023-05-19T05:48:24.000Z,2601
2023-05-19T05:49:40.226Z,2617
2023-05-19T05:50:56.000Z,2625
2023-05-19T05:52:12.000Z,2640
2023-05-19T05:53:28.000Z,2689
2023-05-19T05:54:45.000Z,2723
2023-05-19T05:56:01.430Z,2753
2023-05-19T05:57:17.656Z,2784
2023-05-19T05:58:32.899Z,2785
2023-05-19T05:59:49.160Z,2837
2023-05-19T06:01:05.000Z,2888
2023-05-19T06:02:21.634Z,2891
2023-05-19T06:03:37.000Z,2919
2023-05-19T06:04:54.117Z,2929
2023-05-19T06:06:10.348Z,2962
2023-05-19T06:07:26.601Z,2960
2023-05-19T06:08:42.827Z,3010
2023-05-19T06:09:59.071Z,2972
2023-05-19T06:11:15.000Z,3009
2023-05-19T06:12:31.555Z,3106
2023-05-19T06:13:47.000Z,3111
2023-05-19T06:15:03.056Z,3181
2023-05-19T06:16:19.000Z,3256
2023-05-19T06:17:35.000Z,3330
2023-05-19T06:18:51.763Z,3370
2023-05-19T06:20:07.999Z,3409
2023-05-19T06:21:24.000Z,3458
2023-05-19T06:22:40.000Z,3488
2023-05-19T06:23:56.000Z,3567
2023-05-19T06:25:12.000Z,3629
2023-05-19T06:26:29.000Z,3670
2023-05-19T06:27:45.000Z,3766
2023-05-19T06:29:01.000Z,3734
2023-05-19T06:30:17.931Z,3583
2023-05-19T06:31:33.000Z,3573
2023-05-19T06:32:49.000Z,3531
2023-05-19T06:34:05.000Z,3524
2023-05-19T06:35:21.000Z,3551
2023-05-19T06:36:38.000Z,3554
2023-05-19T06:37:54.000Z,3496
2023-05-19T06:39:10.000Z,3477
2023-05-19T06:40:26.856Z,3460
2023-05-19T06:41:43.000Z,3383
2023-05-19T06:42:59.000Z,3374
2023-05-19T06:44:15.000Z,3404
2023-05-19T06:45:31.000Z,3354
2023-05-19T06:46:48.000Z,3343
2023-05-19T06:48:03.000Z,3365
2023-05-19T06:49:19.000Z,3428
2023-05-19T06:50:35.000Z,3430
2023-05-19T06:51:52.000Z,3663
2023-05-19T06:53:08.263Z,3348
2023-05-19T06:54:24.000Z,3883
2023-05-19T06:55:40.000Z,3531
2023-05-19T06:56:56.000Z,3488
2023-05-19T06:58:13.000Z,3561
2023-05-19T06:59:29.000Z,3610
2023-05-19T07:00:45.000Z,3530
2023-05-19T07:02:01.000Z,3500
2023-05-19T07:03:18.167Z,3477
2023-05-19T07:04:33.000Z,3684
2023-05-19T07:05:49.679Z,3616
2023-05-19T07:07:05.000Z,3691
2023-05-19T07:08:22.000Z,3697
2023-05-19T07:09:38.000Z,3687
2023-05-19T07:10:54.000Z,3507
2023-05-19T07:12:10.000Z,3792
2023-05-19T07:13:27.000Z,3693
2023-05-19T07:14:43.000Z,3732
2023-05-19T07:15:59.000Z,3394
2023-05-19T07:17:15.000Z,3719
2023-05-19T07:18:32.073Z,3764
2023-05-19T07:19:48.000Z,3793
2023-05-19T07:21:03.000Z,3988
2023-05-19T07:22:19.000Z,3972
2023-05-19T07:23:36.000Z,3823
2023-05-19T07:24:52.000Z,4045
2023-05-19T07:26:08.000Z,3715
2023-05-19T07:27:24.000Z,3960
2023-05-19T07:28:41.000Z,3946
2023-05-19T07:29:57.000Z,3918
2023-05-19T07:31:13.000Z,3988
2023-05-19T07:32:29.000Z,4199
2023-05-19T07:33:45.000Z,3955
2023-05-19T07:35:02.000Z,3649
2023-05-19T07:36:18.000Z,3878
2023-05-19T07:37:33.000Z,3878
2023-05-19T07:38:49.000Z,3867
2023-05-19T07:40:06.000Z,3855
2023-05-19T07:41:22.000Z,3856
2023-05-19T07:42:38.000Z,3833
2023-05-19T07:43:54.893Z,3816
2023-05-19T07:45:11.000Z,3831
2023-05-19T07:46:27.000Z,3963
2023-05-19T07:47:43.000Z,3727
2023-05-19T07:48:59.851Z,3797
2023-05-19T07:50:16.000Z,3732
2023-05-19T07:51:32.000Z,3797
2023-05-19T07:52:48.000Z,3813
2023-05-19T07:54:03.000Z,3849
2023-05-19T07:55:20.000Z,3828
2023-05-19T07:56:36.000Z,3840
2023-05-19T07:57:52.000Z,3963
2023-05-19T07:59:08.000Z,3884
2023-05-19T08:00:25.000Z,3867
2023-05-19T08:01:41.267Z,3716
2023-05-19T08:02:57.000Z,3954
2023-05-19T08:04:13.000Z,3539
2023-05-19T08:05:29.000Z,3609
2023-05-19T08:06:46.000Z,3868
2023-05-19T08:08:02.000Z,3431
2023-05-19T08:09:18.000Z,3614
2023-05-19T08:10:33.000Z,3605
2023-05-19T08:11:50.000Z,3819
2023-05-19T08:13:06.000Z,3656
2023-05-19T08:14:22.669Z,3517
2023-05-19T08:15:38.000Z,4107
2023-05-19T08:16:55.000Z,3827
2023-05-19T08:18:11.000Z,3642
2023-05-19T08:19:27.000Z,3677
2023-05-19T08:20:43.000Z,3712
2023-05-19T08:22:00.000Z,3554
2023-05-19T08:23:16.000Z,3391
2023-05-19T08:24:32.000Z,3648
2023-05-19T08:25:48.000Z,3253
2023-05-19T08:27:04.000Z,3063
2023-05-19T08:28:20.000Z,3526
2023-05-19T08:29:36.000Z,3589
2023-05-19T08:30:52.000Z,3231
2023-05-19T08:32:09.000Z,4103
2023-05-19T08:33:25.000Z,4004
2023-05-19T08:34:40.000Z,4640
2023-05-19T08:35:56.000Z,4303
2023-05-19T08:37:13.024Z,4324
2023-05-19T08:38:29.262Z,4257
2023-05-19T08:39:45.000Z,4514
2023-05-19T08:41:01.000Z,4617
2023-05-19T08:42:17.985Z,4764
2023-05-19T08:43:34.000Z,4068
2023-05-19T08:44:50.000Z,4289
2023-05-19T08:46:06.000Z,4239
2023-05-19T08:47:22.942Z,4338
2023-05-19T08:48:39.000Z,4301
2023-05-19T08:49:55.416Z,4128
2023-05-19T08:51:10.000Z,3993
2023-05-19T08:52:26.000Z,4455
2023-05-19T08:53:43.000Z,4329
2023-05-19T08:54:59.000Z,4668
2023-05-19T08:56:15.000Z,4723
2023-05-19T08:57:31.000Z,4653
2023-05-19T08:58:48.000Z,4612
2023-05-19T09:00:04.000Z,4153
2023-05-19T09:01:20.000Z,4356
2023-05-19T09:02:36.000Z,4619
2023-05-19T09:03:53.000Z,4378
2023-05-19T09:05:09.000Z,4303
2023-05-19T09:06:25.000Z,3921
2023-05-19T09:07:40.000Z,4066
2023-05-19T09:08:57.000Z,4271
2023-05-19T09:10:13.000Z,4353
2023-05-19T09:11:29.000Z,4121
2023-05-19T09:12:45.000Z,3880
2023-05-19T09:14:02.000Z,3830
2023-05-19T09:15:18.000Z,3917
2023-05-19T09:16:34.000Z,4164
2023-05-19T09:17:50.000Z,4166
2023-05-19T09:19:06.000Z,4109
2023-05-19T09:20:23.000Z,4072
2023-05-19T09:21:39.000Z,3822
2023-05-19T09:22:55.000Z,3710
2023-05-19T09:24:10.000Z,3825
2023-05-19T09:25:27.000Z,3924
2023-05-19T09:26:43.000Z,4050
2023-05-19T09:27:59.000Z,4024
2023-05-19T09:29:15.000Z,4178
2023-05-19T09:30:32.000Z,4213
2023-05-19T09:31:48.000Z,4242
2023-05-19T09:33:04.000Z,4458
2023-05-19T09:34:20.000Z,4611
2023-05-19T09:35:37.064Z,4441
2023-05-19T09:36:53.000Z,4154
2023-05-19T09:38:09.543Z,4083
2023-05-19T09:39:25.000Z,4364
2023-05-19T09:40:41.000Z,4396
2023-05-19T09:41:57.000Z,4709
2023-05-19T09:43:13.000Z,5150
2023-05-19T09:44:29.000Z,4686
2023-05-19T09:45:46.000Z,4915
2023-05-19T09:47:02.000Z,5157
2023-05-19T09:48:18.000Z,5372
2023-05-19T09:49:34.000Z,5513
2023-05-19T09:50:50.000Z,5722
2023-05-19T09:52:07.000Z,5961
2023-05-19T09:53:23.000Z,6091
2023-05-19T09:54:39.000Z,6256
2023-05-19T09:55:55.919Z,6355
2023-05-19T09:57:11.000Z,6612
2023-05-19T09:58:27.397Z,6076
2023-05-19T09:59:43.000Z,6590
2023-05-19T10:00:59.000Z,5478
2023-05-19T10:02:16.000Z,6120
2023-05-19T10:03:32.000Z,5786
2023-05-19T10:04:48.000Z,5575
2023-05-19T10:06:04.000Z,5974
2023-05-19T10:07:21.000Z,4564
2023-05-19T10:08:37.000Z,5300
2023-05-19T10:09:53.527Z,4995
2023-05-19T10:11:09.000Z,5270
2023-05-19T10:12:26.000Z,4820
2023-05-19T10:13:41.288Z,4922
2023-05-19T10:14:57.000Z,4079
2023-05-19T10:16:13.000Z,4446
2023-05-19T10:17:30.000Z,4635
2023-05-19T10:18:46.000Z,4564
2023-05-19T10:20:02.000Z,4779
2023-05-19T10:21:18.709Z,3574
2023-05-19T10:22:34.000Z,4475
2023-05-19T10:23:51.000Z,4497
2023-05-19T10:25:07.000Z,4526
2023-05-19T10:26:23.000Z,4229
2023-05-19T10:27:39.000Z,4342
2023-05-19T10:28:56.000Z,4102
2023-05-19T10:30:11.000Z,4601
2023-05-19T10:31:27.000Z,4889
2023-05-19T10:32:43.000Z,4479
2023-05-19T10:34:00.000Z,5220
2023-05-19T10:35:16.000Z,5149
2023-05-19T10:36:32.000Z,4000
2023-05-19T10:37:48.000Z,4706
2023-05-19T10:39:05.000Z,4478
2023-05-19T10:40:21.310Z,4947
2023-05-19T10:41:37.000Z,5135
2023-05-19T10:42:53.000Z,5216
2023-05-19T10:44:10.000Z,4594
2023-05-19T10:45:26.000Z,4393
2023-05-19T10:46:41.000Z,4338
2023-05-19T10:47:57.000Z,4569
2023-05-19T10:49:14.000Z,4808
2023-05-19T10:50:30.000Z,4965
2023-05-19T10:51:46.000Z,5327
2023-05-19T10:53:02.000Z,4949
2023-05-19T10:54:18.000Z,5018
2023-05-19T10:55:35.000Z,5921
2023-05-19T10:56:51.000Z,5722
2023-05-19T10:58:07.000Z,5493
2023-05-19T10:59:23.000Z,5776
2023-05-19T11:00:40.000Z,5851
2023-05-19T11:01:56.000Z,5822
2023-05-19T11:03:11.000Z,5759
2023-05-19T11:04:27.000Z,5678
2023-05-19T11:05:44.000Z,5572
2023-05-19T11:07:00.000Z,5600
2023-05-19T11:08:16.000Z,5749
2023-05-19T11:09:32.875Z,5997
2023-05-19T11:10:49.000Z,6223
2023-05-19T11:12:05.000Z,6197
2023-05-19T11:13:21.000Z,5954
2023-05-19T11:14:37.000Z,6003
2023-05-19T11:15:54.000Z,5783
2023-05-19T11:17:10.000Z,6089
2023-05-19T11:18:26.000Z,6045
2023-05-19T11:19:41.000Z,6319
2023-05-19T11:20:58.000Z,6339
2023-05-19T11:22:14.000Z,6427
2023-05-19T11:23:30.000Z,6740
2023-05-19T11:24:46.000Z,6274
2023-05-19T11:26:03.000Z,5490
2023-05-19T11:27:19.000Z,5661
2023-05-19T11:28:35.000Z,6307
2023-05-19T11:29:51.707Z,6707
2023-05-19T11:31:07.000Z,5537
2023-05-19T11:32:24.000Z,6098
2023-05-19T11:33:40.000Z,5504
2023-05-19T11:34:56.000Z,5845
2023-05-19T11:36:11.000Z,6221
2023-05-19T11:37:28.000Z,5864
2023-05-19T11:38:44.000Z,5561
2023-05-19T11:40:00.000Z,5383
2023-05-19T11:41:16.000Z,5382
2023-05-19T11:42:33.000Z,5357
2023-05-19T11:43:49.000Z,5017
2023-05-19T11:45:05.000Z,4599
2023-05-19T11:46:21.000Z,4616
2023-05-19T11:47:38.000Z,5420
2023-05-19T11:48:54.313Z,6044
2023-05-19T11:50:10.000Z,6008
2023-05-19T11:51:26.000Z,6688
2023-05-19T11:52:42.060Z,6451
2023-05-19T11:53:58.000Z,6119
2023-05-19T11:55:14.000Z,5828
2023-05-19T11:56:30.000Z,5943
2023-05-19T11:57:47.000Z,5846
2023-05-19T11:59:03.000Z,6479
2023-05-19T12:00:19.000Z,6107
2023-05-19T12:01:35.000Z,5932
2023-05-19T12:02:51.000Z,6059
2023-05-19T12:04:08.000Z,5677
2023-05-19T12:05:24.000Z,5509
2023-05-19T12:06:40.000Z,5855
2023-05-19T12:07:56.000Z,5946
2023-05-19T12:09:12.141Z,6618
2023-05-19T12:10:28.000Z,6983
2023-05-19T12:11:44.000Z,5845
2023-05-19T12:13:00.000Z,4450
2023-05-19T12:14:17.000Z,4057
2023-05-19T12:15:33.372Z,4677
2023-05-19T12:16:49.000Z,5223
2023-05-19T12:18:05.000Z,5588
2023-05-19T12:19:22.000Z,4771
2023-05-19T12:20:38.000Z,5796
2023-05-19T12:21:54.000Z,5860
2023-05-19T12:23:10.000Z,5634
2023-05-19T12:24:27.000Z,5419
2023-05-19T12:25:42.293Z,5864
2023-05-19T12:26:58.000Z,4746
2023-05-19T12:28:14.000Z,5628
2023-05-19T12:29:31.000Z,5928
2023-05-19T12:30:47.000Z,5772
2023-05-19T12:32:03.000Z,4869
2023-05-19T12:33:19.000Z,5633
2023-05-19T12:34:35.000Z,5044
2023-05-19T12:35:52.000Z,5627
2023-05-19T12:37:08.000Z,5582
2023-05-19T12:38:24.000Z,5694
2023-05-19T12:39:40.000Z,6409
2023-05-19T12:40:57.000Z,4529
2023-05-19T12:42:12.000Z,5397
2023-05-19T12:43:28.000Z,5939
2023-05-19T12:44:44.000Z,6233
2023-05-19T12:46:01.137Z,5993
2023-05-19T12:47:17.000Z,5756
2023-05-19T12:48:33.000Z,6234
2023-05-19T12:49:48.000Z,6417
2023-05-19T12:51:05.000Z,5903
2023-05-19T12:52:21.000Z,5589
2023-05-19T12:53:37.000Z,5109
2023-05-19T12:54:53.000Z,5202
2023-05-19T12:56:10.000Z,5771
2023-05-19T12:57:26.000Z,5623
2023-05-19T12:58:42.000Z,5732
2023-05-19T12:59:58.000Z,6577
2023-05-19T13:01:15.000Z,6471
2023-05-19T13:02:31.000Z,5818
2023-05-19T13:03:47.526Z,5799
2023-05-19T13:05:03.000Z,5353
2023-05-19T13:06:19.000Z,5019
2023-05-19T13:07:35.000Z,4832
2023-05-19T13:08:51.000Z,4612
2023-05-19T13:10:07.000Z,4979
2023-05-19T13:11:23.000Z,5358
2023-05-19T13:12:40.000Z,5602
2023-05-19T13:13:56.000Z,5050
2023-05-19T13:15:12.000Z,5090
2023-05-19T13:16:28.000Z,5235
2023-05-19T13:17:45.000Z,5642
2023-05-19T13:19:01.378Z,5078
2023-05-19T13:20:17.000Z,6727
2023-05-19T13:21:33.000Z,5611
2023-05-19T13:22:49.000Z,6268
2023-05-19T13:24:05.000Z,6242
2023-05-19T13:25:21.000Z,7121
2023-05-19T13:26:37.000Z,4877
2023-05-19T13:27:54.000Z,6320
2023-05-19T13:29:10.000Z,6300
2023-05-19T13:30:26.000Z,6648
2023-05-19T13:31:42.000Z,6644
2023-05-19T13:32:59.000Z,6606
2023-05-19T13:34:15.000Z,6337
2023-05-19T13:35:31.000Z,6871
2023-05-19T13:36:47.000Z,7307
2023-05-19T13:38:04.000Z,7173
2023-05-19T13:39:19.000Z,6371
2023-05-19T13:40:35.000Z,5483
2023-05-19T13:41:51.000Z,4651
2023-05-19T13:43:07.984Z,6012
2023-05-19T13:44:24.213Z,6109
2023-05-19T13:45:40.000Z,6579
2023-05-19T13:46:56.000Z,7459
2023-05-19T13:48:12.000Z,6021
2023-05-19T13:49:29.000Z,5773
2023-05-19T13:50:45.000Z,5243
2023-05-19T13:52:01.000Z,5877
2023-05-19T13:53:17.000Z,5893
2023-05-19T13:54:34.000Z,5771
2023-05-19T13:55:49.000Z,5863
2023-05-19T13:57:05.624Z,6675
2023-05-19T13:58:21.000Z,6289
2023-05-19T13:59:38.000Z,7357
2023-05-19T14:00:54.000Z,7314
2023-05-19T14:02:10.000Z,5054
2023-05-19T14:03:26.000Z,4151
2023-05-19T14:04:43.000Z,6481
2023-05-19T14:05:59.000Z,5874
2023-05-19T14:07:15.000Z,4740
2023-05-19T14:08:31.000Z,3320
2023-05-19T14:09:48.000Z,4892
2023-05-19T14:11:04.000Z,5269
2023-05-19T14:12:19.000Z,4018
2023-05-19T14:13:35.000Z,6003
2023-05-19T14:14:52.000Z,7865
2023-05-19T14:16:08.000Z,7627
2023-05-19T14:17:24.000Z,7168
2023-05-19T14:18:40.000Z,5418
2023-05-19T14:19:56.000Z,6086
2023-05-19T14:21:13.000Z,6312
2023-05-19T14:22:29.000Z,7485
2023-05-19T14:23:45.000Z,5519
2023-05-19T14:25:01.000Z,7810
2023-05-19T14:26:18.000Z,5749
2023-05-19T14:27:34.000Z,6422
2023-05-19T14:28:49.000Z,6302
2023-05-19T14:30:05.000Z,6232
2023-05-19T14:31:22.126Z,6204
2023-05-19T14:32:38.000Z,6177
2023-05-19T14:33:54.000Z,6372
2023-05-19T14:35:10.000Z,6848
2023-05-19T14:36:27.000Z,6666
2023-05-19T14:37:43.000Z,6949
2023-05-19T14:38:59.000Z,6923
2023-05-19T14:40:15.000Z,7203
2023-05-19T14:41:32.000Z,7031
2023-05-19T14:42:48.000Z,7182
2023-05-19T14:44:04.000Z,7295
2023-05-19T14:45:19.000Z,6941
2023-05-19T14:46:36.000Z,6647
2023-05-19T14:47:52.000Z,6002
2023-05-19T14:49:08.000Z,7544
2023-05-19T14:50:24.000Z,6734
2023-05-19T14:51:40.000Z,8191
2023-05-19T14:52:57.000Z,8214
2023-05-19T14:54:13.000Z,6966
2023-05-19T14:55:29.000Z,5307
2023-05-19T14:56:45.000Z,6909
2023-05-19T14:58:02.000Z,6895
2023-05-19T14:59:18.000Z,7681
2023-05-19T15:00:34.000Z,7982
2023-05-19T15:01:49.000Z,7644
2023-05-19T15:03:06.000Z,7291
2023-05-19T15:04:22.000Z,8013
2023-05-19T15:05:38.000Z,7668
2023-05-19T15:06:54.862Z,7046
2023-05-19T15:08:11.000Z,6090
2023-05-19T15:09:27.000Z,6285
2023-05-19T15:10:43.000Z,6534
2023-05-19T15:11:59.000Z,6333
2023-05-19T15:13:16.000Z,6510
2023-05-19T15:14:32.000Z,6432
2023-05-19T15:15:48.000Z,6555
2023-05-19T15:17:04.000Z,6661
2023-05-19T15:18:20.000Z,6821
2023-05-19T15:19:36.000Z,7112
2023-05-19T15:20:52.000Z,7071
2023-05-19T15:22:08.000Z,7234
2023-05-19T15:23:24.953Z,7677
2023-05-19T15:24:41.000Z,7702
2023-05-19T15:25:57.000Z,7656
2023-05-19T15:27:13.000Z,7107
2023-05-19T15:28:29.000Z,6750
2023-05-19T15:29:46.000Z,6966
2023-05-19T15:31:02.000Z,6630
2023-05-19T15:32:18.000Z,6823
2023-05-19T15:33:34.000Z,6998
2023-05-19T15:34:50.000Z,6708
2023-05-19T15:36:06.000Z,5185
2023-05-19T15:37:22.000Z,3446
2023-05-19T15:38:38.000Z,18640
2023-05-19T15:39:55.000Z,11835
2023-05-19T15:41:11.000Z,5478
2023-05-19T15:42:27.000Z,5179
2023-05-19T15:43:43.000Z,5858
2023-05-19T15:45:00.000Z,9418
2023-05-19T15:46:16.000Z,5923
2023-05-19T15:47:32.000Z,3101
2023-05-19T15:48:48.000Z,16543
2023-05-19T15:50:05.000Z,6877
2023-05-19T15:51:20.000Z,2761
2023-05-19T15:52:36.000Z,12229
2023-05-19T15:53:52.000Z,4001
2023-05-19T15:55:09.000Z,19796
2023-05-19T15:56:25.000Z,7994
2023-05-19T15:57:41.000Z,3811
2023-05-19T15:58:57.000Z,15544
2023-05-19T16:00:13.000Z,19470
2023-05-19T16:01:30.000Z,18647
2023-05-19T16:02:46.000Z,8425
2023-05-19T16:04:02.685Z,9071
2023-05-19T16:05:18.000Z,7739
2023-05-19T16:06:35.000Z,8838
2023-05-19T16:07:50.000Z,5446
2023-05-19T16:09:06.000Z,9682
2023-05-19T16:10:22.000Z,9423
2023-05-19T16:11:39.000Z,5667
2023-05-19T16:12:55.000Z,7337
2023-05-19T16:14:11.000Z,9401
2023-05-19T16:15:27.000Z,7612
2023-05-19T16:16:44.000Z,13944
2023-05-19T16:18:00.000Z,6088
2023-05-19T16:19:16.000Z,3400
2023-05-19T16:20:32.000Z,6615
2023-05-19T16:21:49.000Z,23330
2023-05-19T16:23:05.000Z,25790
2023-05-19T16:24:20.000Z,3542
2023-05-19T16:25:36.000Z,18897
2023-05-19T16:26:53.000Z,3382
2023-05-19T16:28:09.000Z,5438
2023-05-19T16:29:25.000Z,21762
2023-05-19T16:30:41.000Z,6965
2023-05-19T16:31:57.000Z,3230
2023-05-19T16:33:14.000Z,16480
2023-05-19T16:34:30.000Z,6017
2023-05-19T16:35:46.710Z,3642
2023-05-19T16:37:02.945Z,6632
2023-05-19T16:38:19.000Z,9931
2023-05-19T16:39:35.000Z,7360
2023-05-19T16:40:50.000Z,14501
2023-05-19T16:42:06.000Z,6017
2023-05-19T16:43:23.000Z,5028
2023-05-19T16:44:39.000Z,4565
2023-05-19T16:45:55.000Z,3765
2023-05-19T16:47:11.000Z,8592
2023-05-19T16:48:28.000Z,5928
2023-05-19T16:49:44.000Z,3981
2023-05-19T16:51:00.000Z,3648
2023-05-19T16:52:16.000Z,6083
2023-05-19T16:53:33.000Z,21578
2023-05-19T16:54:49.000Z,3380
2023-05-19T16:56:05.000Z,8896
2023-05-19T16:57:20.800Z,13709
2023-05-19T16:58:37.000Z,10467
2023-05-19T16:59:53.000Z,4922
2023-05-19T17:01:09.485Z,5707
2023-05-19T17:02:25.000Z,7840
2023-05-19T17:03:41.000Z,5587
2023-05-19T17:04:57.000Z,7971
2023-05-19T17:06:13.000Z,10438
2023-05-19T17:07:29.000Z,14939
2023-05-19T17:08:45.000Z,13270
2023-05-19T17:10:02.000Z,15269
2023-05-19T17:11:18.000Z,14325
2023-05-19T17:12:34.000Z,11079
2023-05-19T17:13:50.000Z,7635
2023-05-19T17:15:07.000Z,6834